Time;durP1;ratioP1;P1;durP2;ratioP2;P2;SDS_P1;SDS_P2;PMS_P1;PMS_P2;Temp;Humidity;BMP_temperature;BMP_pressure;BME280_temperature;BME280_humidity;BME280_pressure;Samples;Min_cycle;Max_cycle;Signal;HPM_P1;HPM_P2
2021/08/10 00:00:35;;;;;;;1.98;0.45;;;;;;;19.41;60.10;101436.91;5053616;28;20109;-65
2021/08/10 00:03:01;;;;;;;0.30;0.30;;;;;;;19.40;59.74;101443.38;5053896;28;20078;-65
2021/08/10 00:05:26;;;;;;;1.83;0.60;;;;;;;19.39;59.39;101430.78;5053429;28;20025;-65
2021/08/10 00:07:52;;;;;;;1.40;0.73;;;;;;;19.36;60.99;101442.00;5053716;28;20025;-66
2021/08/10 00:10:18;;;;;;;0.77;0.40;;;;;;;19.42;60.34;101440.50;5053415;28;20047;-65
2021/08/10 00:12:44;;;;;;;0.57;0.30;;;;;;;19.44;59.68;101438.44;5053528;28;20064;-65
2021/08/10 00:15:10;;;;;;;2.20;0.57;;;;;;;19.40;59.75;101437.06;5061185;28;20029;-65
2021/08/10 00:17:36;;;;;;;0.50;0.40;;;;;;;19.42;59.81;101433.16;5073212;28;20442;-65
2021/08/10 00:20:02;;;;;;;0.80;0.50;;;;;;;19.48;59.45;101428.91;5073693;28;20115;-65
2021/08/10 00:22:28;;;;;;;1.58;0.40;;;;;;;19.44;60.16;101428.41;5073432;28;20028;-65
2021/08/10 00:24:53;;;;;;;0.70;0.35;;;;;;;19.43;60.16;101426.69;5073450;28;20042;-66
2021/08/10 00:27:19;;;;;;;2.15;0.63;;;;;;;19.40;60.20;101429.75;5073494;28;20375;-65
2021/08/10 00:29:44;;;;;;;0.57;0.30;;;;;;;19.44;58.28;101431.13;5073449;28;20471;-65
2021/08/10 00:32:10;;;;;;;1.90;0.30;;;;;;;19.37;59.69;101432.81;5073227;28;20032;-65
2021/08/10 00:34:35;;;;;;;1.00;0.30;;;;;;;19.44;60.28;101436.56;5073306;28;20074;-65
2021/08/10 00:37:06;;;;;;;2.75;0.47;;;;;;;19.39;59.68;101433.50;5073087;28;20025;-65
2021/08/10 00:39:32;;;;;;;1.00;0.30;;;;;;;19.40;59.84;101429.75;5073293;28;20031;-65
2021/08/10 00:41:58;;;;;;;0.98;0.40;;;;;;;19.39;59.40;101428.03;5073388;28;20546;-66
2021/08/10 00:44:23;;;;;;;0.77;0.32;;;;;;;19.38;59.50;101430.94;5073200;28;20028;-66
2021/08/10 00:46:48;;;;;;;1.02;0.40;;;;;;;19.41;60.53;101426.00;5073078;28;20040;-65
2021/08/10 00:49:15;;;;;;;0.82;0.30;;;;;;;19.36;60.23;101427.53;5072855;28;20036;-66
2021/08/10 00:51:41;;;;;;;2.42;0.50;;;;;;;19.38;59.38;101423.59;5073204;28;20033;-65
2021/08/10 00:54:08;;;;;;;1.17;0.40;;;;;;;19.34;60.13;101430.41;5073233;28;20348;-66
2021/08/10 00:56:33;;;;;;;1.45;0.85;;;;;;;19.42;59.68;101426.84;5063268;28;20029;-66
2021/08/10 00:59:00;;;;;;;1.98;0.47;;;;;;;19.34;60.63;101419.50;5053147;28;20021;-65
2021/08/10 01:01:25;;;;;;;0.85;0.28;;;;;;;19.33;60.75;101428.72;5052854;28;20052;-66
2021/08/10 01:03:50;;;;;;;4.90;0.45;;;;;;;19.32;60.30;101427.00;5053113;28;20086;-65
2021/08/10 01:06:42;;;;;;;1.88;0.82;;;;;;;19.35;60.29;101432.13;5052870;28;20025;-66
2021/08/10 01:09:13;;;;;;;1.52;0.40;;;;;;;19.35;61.19;101421.22;4933088;29;20054;-65
2021/08/10 01:12:13;;;;;;;1.67;0.20;;;;;;;19.34;61.60;101424.97;4933777;29;20032;-66
2021/08/10 01:14:47;;;;;;;0.35;0.20;;;;;;;19.38;60.38;101436.38;4933751;29;20031;-65
2021/08/10 01:17:27;;;;;;;2.17;0.90;;;;;;;19.39;60.70;101438.94;4933657;29;20024;-66
2021/08/10 01:20:21;;;;;;;0.50;0.30;;;;;;;19.31;60.83;101438.91;4933644;29;20043;-66
2021/08/10 01:22:51;;;;;;;1.63;0.40;;;;;;;19.35;59.58;101436.72;4936446;29;20123;-66
2021/08/10 01:25:34;;;;;;;2.90;0.73;;;;;;;19.29;59.88;101438.22;4936928;29;20069;-67
2021/08/10 01:28:25;;;;;;;2.67;0.40;;;;;;;19.32;59.88;101442.50;4937479;29;20075;-65
2021/08/10 01:31:07;;;;;;;1.35;0.50;;;;;;;19.35;60.81;101440.31;4937352;29;20119;-66
2021/08/10 01:33:39;;;;;;;1.90;0.43;;;;;;;19.31;60.63;101436.16;4937118;29;20055;-66
2021/08/10 01:36:08;;;;;;;1.10;0.40;;;;;;;19.33;59.75;101439.63;4936986;29;20091;-65
2021/08/10 01:38:34;;;;;;;1.65;0.40;;;;;;;19.29;59.87;101449.13;4937260;29;20059;-65
2021/08/10 01:41:00;;;;;;;0.30;0.20;;;;;;;19.33;60.21;101441.50;4936958;29;20206;-66
2021/08/10 01:43:29;;;;;;;0.68;0.40;;;;;;;19.25;60.36;101436.84;4936828;29;20476;-66
2021/08/10 01:45:58;;;;;;;3.72;0.38;;;;;;;19.30;59.94;101447.25;4981014;28;20059;-66
2021/08/10 01:48:23;;;;;;;0.55;0.30;;;;;;;19.29;58.45;101446.38;5056347;28;20029;-66
2021/08/10 01:50:49;;;;;;;0.57;0.22;;;;;;;19.27;60.29;101439.41;5056168;28;20078;-65
2021/08/10 01:53:17;;;;;;;0.93;0.40;;;;;;;19.32;60.38;101443.34;5056226;28;20035;-66
2021/08/10 01:55:44;;;;;;;0.13;0.13;;;;;;;19.27;60.04;101450.31;5056275;28;20075;-66
2021/08/10 01:58:11;;;;;;;1.10;0.40;;;;;;;19.27;61.25;101451.16;5056223;28;20025;-66
2021/08/10 02:00:39;;;;;;;0.70;0.38;;;;;;;19.20;60.64;101455.56;5038060;28;20063;-66
2021/08/10 02:03:07;;;;;;;1.55;0.47;;;;;;;19.25;60.64;101455.91;5055772;28;20032;-67
2021/08/10 02:05:33;;;;;;;1.38;0.50;;;;;;;19.22;60.88;101458.97;5054858;28;20025;-66
2021/08/10 02:07:59;;;;;;;1.00;0.40;;;;;;;19.25;60.97;101461.38;5053716;28;20021;-66
2021/08/10 02:10:27;;;;;;;0.90;0.57;;;;;;;19.22;60.27;101453.53;5055721;28;20033;-66
2021/08/10 02:12:53;;;;;;;0.73;0.22;;;;;;;19.31;60.51;101466.16;5055848;28;20029;-66
2021/08/10 02:15:19;;;;;;;2.97;0.45;;;;;;;19.21;60.83;101463.56;5064714;28;20020;-67
2021/08/10 02:17:44;;;;;;;0.30;0.20;;;;;;;19.22;60.48;101467.16;5075817;28;20032;-66
2021/08/10 02:20:13;;;;;;;0.40;0.30;;;;;;;19.20;60.24;101467.31;5075609;28;20031;-67
2021/08/10 02:22:42;;;;;;;1.00;0.40;;;;;;;19.19;60.24;101462.03;5075707;28;20475;-66
2021/08/10 02:25:11;;;;;;;1.10;0.60;;;;;;;19.25;61.45;101466.81;5075684;28;20422;-66
2021/08/10 02:27:37;;;;;;;2.03;0.70;;;;;;;19.17;60.26;101464.91;5075707;28;20028;-66
2021/08/10 02:30:09;;;;;;;2.00;0.45;;;;;;;19.21;60.28;101462.72;5075634;28;20028;-66
2021/08/10 02:32:37;;;;;;;0.93;0.45;;;;;;;19.24;60.69;101459.66;5075220;28;20032;-66
2021/08/10 02:35:04;;;;;;;2.28;0.47;;;;;;;19.25;59.19;101464.09;5075522;28;20017;-65
2021/08/10 02:37:32;;;;;;;1.50;0.38;;;;;;;19.22;60.51;101469.88;5075214;28;20089;-67
2021/08/10 02:40:01;;;;;;;0.93;0.32;;;;;;;19.18;60.66;101468.50;5075518;28;20079;-66
2021/08/10 02:42:27;;;;;;;1.85;0.38;;;;;;;19.26;60.40;101464.94;5075125;28;20408;-66
2021/08/10 02:44:55;;;;;;;0.50;0.30;;;;;;;19.20;60.10;101467.31;5075236;28;20028;-66
2021/08/10 02:47:21;;;;;;;0.63;0.20;;;;;;;19.17;59.97;101470.38;5075239;28;20502;-65
2021/08/10 02:49:46;;;;;;;0.68;0.40;;;;;;;19.18;60.52;101473.94;5075236;28;20032;-66
2021/08/10 02:52:12;;;;;;;4.00;0.55;;;;;;;19.17;60.00;101472.25;5075182;28;20471;-65
2021/08/10 02:54:39;;;;;;;0.90;0.47;;;;;;;19.13;60.38;101471.69;5075187;28;20127;-66
2021/08/10 02:57:12;;;;;;;0.57;0.30;;;;;;;19.15;60.62;101471.56;5075203;28;20033;-65
2021/08/10 02:59:53;;;;;;;1.35;0.40;;;;;;;19.15;60.76;101464.22;5075044;28;20020;-66
2021/08/10 03:02:21;;;;;;;0.68;0.30;;;;;;;19.16;60.69;101454.19;5074747;28;20072;-65
2021/08/10 03:05:01;;;;;;;1.27;0.30;;;;;;;19.20;60.03;101455.56;5074789;28;20052;-66
2021/08/10 03:07:27;;;;;;;0.75;0.20;;;;;;;19.18;60.71;101454.88;5074500;28;20460;-66
2021/08/10 03:09:55;;;;;;;0.55;0.30;;;;;;;19.13;59.91;101454.47;5074900;28;20040;-66
2021/08/10 03:12:23;;;;;;;1.38;0.30;;;;;;;19.07;61.60;101439.63;5057855;28;20139;-66
2021/08/10 03:14:50;;;;;;;1.75;0.30;;;;;;;19.08;59.65;101435.03;5059246;28;20024;-66
2021/08/10 03:17:17;;;;;;;1.42;0.40;;;;;;;19.05;60.93;101440.81;5074634;28;20170;-66
2021/08/10 03:19:45;;;;;;;1.27;0.40;;;;;;;19.13;59.34;101432.66;5066484;28;20017;-66
2021/08/10 03:22:11;;;;;;;1.02;0.20;;;;;;;19.07;60.09;101438.78;5054270;28;20070;-66
2021/08/10 03:24:37;;;;;;;2.80;0.40;;;;;;;19.06;60.67;101423.44;5054540;28;20024;-66
2021/08/10 03:27:04;;;;;;;0.95;0.32;;;;;;;19.07;60.44;101425.16;5036583;28;20116;-65
2021/08/10 03:29:34;;;;;;;1.13;0.40;;;;;;;19.02;60.85;101431.09;5054114;28;20025;-65
2021/08/10 03:32:01;;;;;;;4.80;0.98;;;;;;;19.05;59.24;101424.47;5054313;28;20021;-66
2021/08/10 03:34:27;;;;;;;2.08;0.43;;;;;;;19.03;59.88;101427.34;5036532;28;20109;-66
2021/08/10 03:36:54;;;;;;;2.08;0.40;;;;;;;19.01;59.88;101434.00;5054081;28;20104;-65
2021/08/10 03:39:20;;;;;;;0.82;0.35;;;;;;;19.02;60.05;101433.81;5054277;28;20083;-66
2021/08/10 03:41:46;;;;;;;1.08;0.20;;;;;;;19.06;59.66;101442.53;5054313;28;20025;-65
2021/08/10 03:44:13;;;;;;;1.17;0.25;;;;;;;18.96;61.10;101431.72;5053555;28;20028;-68
2021/08/10 03:46:39;;;;;;;0.80;0.30;;;;;;;19.01;59.52;101434.00;5036057;28;20024;-66
2021/08/10 03:49:05;;;;;;;0.50;0.20;;;;;;;19.00;61.11;101432.28;5053795;28;20039;-66
2021/08/10 03:51:31;;;;;;;1.33;0.60;;;;;;;19.01;60.20;101432.13;5053677;28;20021;-66
2021/08/10 03:53:56;;;;;;;0.70;0.20;;;;;;;18.98;60.52;101429.72;5053954;28;20029;-66
2021/08/10 03:56:24;;;;;;;1.15;0.47;;;;;;;19.01;61.23;101434.00;5053887;28;20404;-66
2021/08/10 03:58:52;;;;;;;0.80;0.15;;;;;;;18.99;60.39;101430.56;5053826;28;20111;-66
2021/08/10 04:01:19;;;;;;;2.13;0.30;;;;;;;19.04;58.81;101433.66;5053432;28;20053;-66
2021/08/10 04:03:45;;;;;;;1.35;0.10;;;;;;;20.02;57.14;101429.47;5035965;28;20075;-66
2021/08/10 04:06:11;;;;;;;0.20;0.20;;;;;;;20.35;57.52;101425.72;5053725;28;20028;-65
2021/08/10 04:08:37;;;;;;;0.38;0.20;;;;;;;20.47;57.00;101418.06;5053754;28;20047;-65
2021/08/10 04:11:03;;;;;;;0.38;0.08;;;;;;;20.60;55.96;101412.94;5053744;28;20056;-65
2021/08/10 04:13:31;;;;;;;0.15;0.15;;;;;;;20.65;56.07;101417.88;5053603;28;20036;-65
2021/08/10 04:15:59;;;;;;;0.22;0.20;;;;;;;20.69;56.98;101411.91;5053544;28;20040;-65
2021/08/10 04:18:25;;;;;;;0.60;0.20;;;;;;;20.83;54.76;101417.69;5053557;28;20554;-65
2021/08/10 04:20:52;;;;;;;1.85;0.20;;;;;;;20.82;57.38;101421.44;5053217;28;20086;-65
2021/08/10 04:23:19;;;;;;;0.85;0.10;;;;;;;20.85;57.28;101415.66;5053038;28;20021;-64
2021/08/10 04:25:44;;;;;;;0.45;0.10;;;;;;;20.84;56.69;101419.41;5053418;28;20033;-65
2021/08/10 04:28:11;;;;;;;2.08;0.38;;;;;;;20.85;58.53;101416.50;5053189;28;20028;-65
2021/08/10 04:30:37;;;;;;;0.40;0.10;;;;;;;20.86;57.61;101420.09;5053326;28;20024;-64
2021/08/10 04:33:04;;;;;;;0.75;0.20;;;;;;;20.89;60.53;101417.84;5053423;28;20052;-65
2021/08/10 04:35:30;;;;;;;1.55;0.20;;;;;;;20.93;57.97;101423.81;5053315;28;20048;-65
2021/08/10 04:37:55;;;;;;;1.20;0.10;;;;;;;21.05;58.08;101411.50;5053321;28;20060;-65
2021/08/10 04:40:21;;;;;;;1.35;0.10;;;;;;;20.97;59.24;101416.97;5053217;28;20336;-65
2021/08/10 04:42:46;;;;;;;0.73;0.20;;;;;;;20.92;59.53;101416.63;5053274;28;20036;-65
2021/08/10 04:45:11;;;;;;;1.10;0.10;;;;;;;20.94;57.59;101420.03;5052980;28;20106;-65
2021/08/10 04:47:37;;;;;;;0.60;0.10;;;;;;;20.96;60.47;101415.25;5052871;28;20586;-66
2021/08/10 04:50:02;;;;;;;1.40;0.15;;;;;;;20.97;59.85;101409.59;5053266;28;20029;-65
2021/08/10 04:52:28;;;;;;;1.70;0.10;;;;;;;21.01;59.89;101421.06;5052785;28;20029;-65
2021/08/10 04:54:56;;;;;;;0.30;0.15;;;;;;;20.99;59.01;101414.91;5052989;28;20032;-64
2021/08/10 04:57:21;;;;;;;2.25;0.17;;;;;;;21.00;59.32;101422.94;5055129;28;20021;-64
2021/08/10 04:59:50;;;;;;;0.95;0.20;;;;;;;21.03;58.46;101432.69;5057167;28;20411;-64
2021/08/10 05:02:15;;;;;;;0.63;0.20;;;;;;;21.03;58.18;101425.34;5056801;28;20520;-66
2021/08/10 05:04:42;;;;;;;0.43;0.10;;;;;;;21.00;58.34;101430.31;5057029;28;20025;-63
2021/08/10 05:07:07;;;;;;;0.20;0.10;;;;;;;21.02;59.04;101433.72;5056000;28;20410;-65
2021/08/10 05:09:33;;;;;;;0.55;0.10;;;;;;;21.04;58.32;101434.38;5054966;28;20087;-64
2021/08/10 05:11:59;;;;;;;0.20;0.13;;;;;;;21.10;60.49;101424.63;5055997;28;20108;-64
2021/08/10 05:14:24;;;;;;;1.30;0.10;;;;;;;20.98;59.40;101435.91;5058383;28;20117;-64
2021/08/10 05:16:50;;;;;;;0.52;0.20;;;;;;;21.01;60.45;101429.28;5062349;28;20427;-63
2021/08/10 05:19:15;;;;;;;1.58;0.52;;;;;;;21.02;59.41;101429.09;5051587;28;20032;-65
2021/08/10 05:21:41;;;;;;;0.80;0.15;;;;;;;21.07;58.31;101430.44;5065873;28;20036;-64
2021/08/10 05:24:06;;;;;;;0.80;0.10;;;;;;;21.08;57.29;101427.53;5056148;28;20104;-65
2021/08/10 05:26:32;;;;;;;0.77;0.30;;;;;;;21.08;59.50;101421.22;5054027;28;20028;-64
2021/08/10 05:28:57;;;;;;;0.40;0.20;;;;;;;21.07;59.03;101425.81;5054402;28;20048;-63
2021/08/10 05:31:23;;;;;;;0.52;0.13;;;;;;;21.06;60.60;101418.66;5056441;28;20029;-63
2021/08/10 05:33:48;;;;;;;0.10;0.10;;;;;;;21.10;59.16;101419.16;5053371;28;20025;-63
2021/08/10 05:36:14;;;;;;;0.60;0.20;;;;;;;21.08;60.44;101411.13;5052820;28;20465;-63
2021/08/10 05:38:43;;;;;;;1.75;0.25;;;;;;;21.14;60.83;101409.56;5052666;28;20033;-63
2021/08/10 05:41:08;;;;;;;1.55;0.40;;;;;;;21.14;59.29;101410.41;5053834;28;20060;-63
2021/08/10 05:43:34;;;;;;;0.20;0.00;;;;;;;21.11;61.64;101404.44;5055330;28;20060;-63
2021/08/10 05:45:59;;;;;;;2.00;0.10;;;;;;;21.13;60.73;101413.31;5056343;28;20063;-64
2021/08/10 05:48:25;;;;;;;0.95;0.30;;;;;;;21.13;60.46;101408.72;5055996;28;20406;-63
2021/08/10 05:50:50;;;;;;;0.00;0.00;;;;;;;21.18;59.96;101400.00;5056336;28;20425;-62
2021/08/10 05:53:16;;;;;;;0.30;0.10;;;;;;;21.27;58.49;101407.16;5056165;28;20021;-62
2021/08/10 05:55:41;;;;;;;0.90;0.17;;;;;;;21.17;59.80;101407.34;5056208;28;20017;-62
2021/08/10 05:58:06;;;;;;;1.08;0.40;;;;;;;21.23;60.20;101409.38;5055999;28;20063;-63
2021/08/10 06:00:32;;;;;;;0.55;0.20;;;;;;;21.23;60.84;101406.63;5046798;28;20029;-62
2021/08/10 06:02:57;;;;;;;0.40;0.20;;;;;;;21.21;59.72;101405.97;5038603;28;20029;-63
2021/08/10 06:05:23;;;;;;;1.35;0.38;;;;;;;21.22;58.85;101402.19;5039534;28;20517;-64
2021/08/10 06:07:48;;;;;;;3.05;0.60;;;;;;;21.20;59.97;101409.72;5055526;28;20021;-63
2021/08/10 06:10:13;;;;;;;0.05;0.00;;;;;;;21.28;60.13;101401.50;5056181;28;20538;-63
2021/08/10 06:12:39;;;;;;;0.38;0.10;;;;;;;21.29;59.98;101408.69;5059510;28;20050;-63
2021/08/10 06:15:05;;;;;;;0.43;0.10;;;;;;;21.24;61.29;101405.63;5055151;28;20033;-63
2021/08/10 06:17:30;;;;;;;2.00;0.20;;;;;;;21.26;60.27;101403.56;5055734;28;20100;-63
2021/08/10 06:19:56;;;;;;;0.52;0.13;;;;;;;21.27;59.77;101416.22;5055061;28;20116;-63
2021/08/10 06:22:21;;;;;;;1.17;0.30;;;;;;;21.28;59.09;101412.44;5036736;28;20051;-63
2021/08/10 06:24:46;;;;;;;0.50;0.13;;;;;;;21.34;60.49;101412.78;5035745;28;20025;-63
2021/08/10 06:27:12;;;;;;;0.20;0.10;;;;;;;21.34;60.46;101410.06;5035402;28;20037;-64
2021/08/10 06:29:37;;;;;;;2.55;0.30;;;;;;;21.25;58.42;101411.97;5035751;28;20112;-63
2021/08/10 06:32:03;;;;;;;1.65;0.57;;;;;;;21.28;60.01;101412.44;5039222;28;20100;-64
2021/08/10 06:34:28;;;;;;;1.38;0.32;;;;;;;21.29;60.63;101416.88;5040497;28;20025;-64
2021/08/10 06:36:54;;;;;;;1.95;0.20;;;;;;;21.35;59.98;101415.34;5035630;28;20229;-63
2021/08/10 06:39:19;;;;;;;2.00;0.25;;;;;;;21.36;59.79;101413.47;5035289;28;20029;-65
2021/08/10 06:41:44;;;;;;;1.30;0.28;;;;;;;21.32;60.09;101416.53;5035378;28;20033;-64
2021/08/10 06:44:10;;;;;;;1.30;0.25;;;;;;;21.26;59.48;101414.50;5035221;28;20043;-64
2021/08/10 06:46:36;;;;;;;0.93;0.30;;;;;;;21.26;60.67;101414.50;5035108;28;20025;-64
2021/08/10 06:49:01;;;;;;;0.90;0.20;;;;;;;21.31;61.73;101417.56;5035372;28;20491;-64
2021/08/10 06:51:27;;;;;;;0.20;0.10;;;;;;;21.30;59.40;101418.59;5037695;28;20021;-64
2021/08/10 06:53:52;;;;;;;2.22;0.40;;;;;;;21.35;58.38;101426.28;5055327;28;20031;-64
2021/08/10 06:56:17;;;;;;;1.77;0.30;;;;;;;21.28;60.50;101417.91;5054572;28;20033;-64
2021/08/10 06:58:42;;;;;;;2.35;0.40;;;;;;;21.23;60.38;101419.47;5038244;28;20736;-64
2021/08/10 07:01:08;;;;;;;0.70;0.20;;;;;;;21.23;59.87;101414.84;5034404;28;20444;-64
2021/08/10 07:03:34;;;;;;;1.15;0.30;;;;;;;21.34;60.16;101421.00;5035044;28;20667;-65
2021/08/10 07:05:59;;;;;;;1.05;0.40;;;;;;;21.30;59.65;101415.00;5034911;28;20369;-64
2021/08/10 07:08:25;;;;;;;1.33;0.80;;;;;;;21.28;60.58;101428.84;5050858;28;20029;-65
2021/08/10 07:10:50;;;;;;;0.57;0.43;;;;;;;21.28;61.48;101423.38;5058346;28;20376;-65
2021/08/10 07:13:16;;;;;;;0.43;0.40;;;;;;;21.30;60.20;101425.94;5058082;28;20036;-64
2021/08/10 07:15:41;;;;;;;1.25;0.30;;;;;;;21.32;58.84;101424.72;5054643;28;20099;-64
2021/08/10 07:18:07;;;;;;;0.75;0.30;;;;;;;21.25;61.12;101429.22;5054733;28;20029;-64
2021/08/10 07:20:32;;;;;;;0.40;0.22;;;;;;;21.24;60.29;101427.50;5053152;28;20509;-64
2021/08/10 07:22:59;;;;;;;1.25;0.60;;;;;;;21.24;62.15;101427.50;5037495;28;20029;-63
2021/08/10 07:25:24;;;;;;;2.20;0.50;;;;;;;21.24;61.32;101432.97;5034282;28;20021;-63
2021/08/10 07:27:49;;;;;;;0.68;0.20;;;;;;;21.21;60.79;101427.00;5046572;28;20498;-62
2021/08/10 07:30:15;;;;;;;1.60;0.50;;;;;;;21.14;62.26;101421.34;5047646;28;20033;-62
2021/08/10 07:32:40;;;;;;;0.57;0.30;;;;;;;21.12;59.53;101417.94;5034490;28;20029;-61
2021/08/10 07:35:08;;;;;;;1.75;0.32;;;;;;;21.06;60.58;101429.59;5035875;28;20030;-61
2021/08/10 07:37:41;;;;;;;0.57;0.10;;;;;;;21.01;61.54;101421.06;5052797;28;20024;-65
2021/08/10 07:40:07;;;;;;;1.25;0.28;;;;;;;20.99;59.65;101425.84;5050451;28;20029;-63
2021/08/10 07:42:33;;;;;;;1.27;0.47;;;;;;;20.95;59.82;101427.22;5051296;28;20056;-64
2021/08/10 07:44:58;;;;;;;3.60;0.47;;;;;;;20.96;59.67;101424.31;5043790;28;20049;-62
2021/08/10 07:47:23;;;;;;;0.45;0.30;;;;;;;20.94;60.30;101420.91;5025420;28;20031;-61
2021/08/10 07:49:49;;;;;;;1.90;0.70;;;;;;;20.93;60.07;101421.94;5043093;28;20025;-62
2021/08/10 07:52:14;;;;;;;1.05;0.20;;;;;;;20.93;59.66;101412.88;5051197;28;20036;-62
2021/08/10 07:54:39;;;;;;;0.63;0.20;;;;;;;20.90;59.35;101418.69;5045769;28;20028;-63
2021/08/10 07:57:05;;;;;;;1.58;0.57;;;;;;;20.83;60.46;101407.63;5051276;28;20409;-64
2021/08/10 07:59:30;;;;;;;2.92;0.63;;;;;;;20.83;59.93;101412.25;5050229;28;20029;-65
2021/08/10 08:01:55;;;;;;;1.73;0.30;;;;;;;20.83;60.04;101414.97;5051075;28;20037;-61
2021/08/10 08:04:21;;;;;;;0.55;0.20;;;;;;;20.91;60.01;101414.94;5045183;28;20036;-62
2021/08/10 08:06:47;;;;;;;2.20;0.63;;;;;;;20.88;58.56;101420.75;5053258;28;20037;-60
2021/08/10 08:09:13;;;;;;;1.80;0.30;;;;;;;20.86;59.01;101414.63;5053298;28;20063;-65
2021/08/10 08:11:38;;;;;;;0.40;0.20;;;;;;;20.80;61.31;101423.50;5053759;28;20103;-62
2021/08/10 08:14:04;;;;;;;1.38;0.60;;;;;;;20.80;60.29;101426.22;5072034;28;20039;-62
2021/08/10 08:16:29;;;;;;;0.47;0.20;;;;;;;20.83;60.94;101424.03;5054808;28;20025;-63
2021/08/10 08:18:55;;;;;;;0.43;0.28;;;;;;;20.76;60.79;101420.25;5053618;28;20493;-62
2021/08/10 08:21:21;;;;;;;1.42;0.52;;;;;;;20.82;61.61;101426.91;5053493;28;20516;-61
2021/08/10 08:23:46;;;;;;;0.22;0.15;;;;;;;20.89;59.04;101427.94;5053511;28;20041;-59
2021/08/10 08:26:11;;;;;;;1.13;0.28;;;;;;;20.83;61.07;101428.63;5053120;28;20055;-61
2021/08/10 08:28:37;;;;;;;1.05;0.43;;;;;;;20.77;59.66;101421.97;5059531;28;20025;-62
2021/08/10 08:31:03;;;;;;;2.03;0.50;;;;;;;20.79;60.38;101416.31;5056327;28;20025;-60
2021/08/10 08:33:29;;;;;;;0.85;0.35;;;;;;;20.83;59.74;101417.69;5053172;28;20033;-61
2021/08/10 08:35:54;;;;;;;1.92;0.20;;;;;;;20.80;62.33;101412.56;5053307;28;20025;-60
2021/08/10 08:38:20;;;;;;;1.60;0.30;;;;;;;20.81;59.98;101408.78;5049843;28;20114;-61
2021/08/10 08:40:47;;;;;;;1.10;0.30;;;;;;;20.84;60.50;101409.31;5052586;28;20066;-60
2021/08/10 08:43:16;;;;;;;0.52;0.20;;;;;;;20.88;61.05;101412.56;5053061;28;20460;-60
2021/08/10 08:45:41;;;;;;;1.13;0.20;;;;;;;20.82;60.28;101405.03;5053024;28;20040;-61
2021/08/10 08:48:10;;;;;;;0.40;0.08;;;;;;;20.85;59.95;101400.09;5056194;28;20025;-61
2021/08/10 08:50:36;;;;;;;2.00;0.30;;;;;;;20.85;60.63;101401.97;5067219;28;20025;-62
2021/08/10 08:53:05;;;;;;;0.70;0.22;;;;;;;20.80;60.90;101401.63;5072133;28;20028;-60
2021/08/10 08:55:31;;;;;;;1.50;0.28;;;;;;;20.82;61.15;101399.56;5053182;28;20013;-61
2021/08/10 08:57:56;;;;;;;2.08;0.50;;;;;;;20.79;61.09;101395.31;5035204;28;20025;-60
2021/08/10 09:00:22;;;;;;;0.95;0.20;;;;;;;20.85;59.56;101388.31;5052116;28;20032;-59
2021/08/10 09:02:47;;;;;;;0.75;0.30;;;;;;;20.84;59.34;101390.19;5052861;28;20464;-60
2021/08/10 09:05:13;;;;;;;0.85;0.30;;;;;;;20.80;61.89;101393.44;5053552;28;20033;-61
2021/08/10 09:07:40;;;;;;;1.98;0.40;;;;;;;20.78;58.69;101392.75;5058321;28;20036;-60
2021/08/10 09:10:16;;;;;;;0.15;0.08;;;;;;;20.83;60.29;101384.91;5050900;28;20035;-61
2021/08/10 09:12:46;;;;;;;0.30;0.20;;;;;;;20.86;60.64;101390.03;5057088;28;20020;-63
2021/08/10 09:15:30;;;;;;;2.40;0.38;;;;;;;20.81;60.49;101382.31;5053424;28;20032;-62
2021/08/10 09:18:06;;;;;;;0.73;0.30;;;;;;;20.83;60.17;101387.66;5059820;28;20139;-63
2021/08/10 09:20:32;;;;;;;0.13;0.10;;;;;;;20.88;59.02;101393.44;5061295;28;20418;-62
2021/08/10 09:22:57;;;;;;;1.48;0.40;;;;;;;20.86;61.23;101387.28;5034765;28;20537;-64
2021/08/10 09:25:24;;;;;;;1.02;0.30;;;;;;;20.86;60.68;101390.03;5053770;28;20017;-66
2021/08/10 09:28:08;;;;;;;0.30;0.30;;;;;;;20.85;60.68;101399.25;5050889;28;20029;-68
2021/08/10 09:30:34;;;;;;;0.65;0.20;;;;;;;20.85;61.54;101416.50;5052593;28;20520;-65
2021/08/10 09:33:03;;;;;;;1.23;0.25;;;;;;;20.85;59.46;101416.50;5052953;28;20116;-63
2021/08/10 09:35:34;;;;;;;0.30;0.20;;;;;;;20.85;60.89;101410.19;5049965;28;20028;-62
2021/08/10 09:38:16;;;;;;;0.68;0.25;;;;;;;20.80;61.53;101415.28;5052338;28;20055;-64
2021/08/10 09:40:48;;;;;;;1.00;0.25;;;;;;;20.84;60.13;101408.47;5052109;28;20104;-67
2021/08/10 09:43:29;;;;;;;0.20;0.10;;;;;;;20.83;58.54;101412.25;5049828;28;20029;-64
2021/08/10 09:46:06;;;;;;;2.55;0.40;;;;;;;20.83;58.07;101417.69;5056353;28;20103;-63
2021/08/10 09:48:32;;;;;;;0.80;0.20;;;;;;;20.83;59.02;101410.34;5056045;28;20048;-66
2021/08/10 09:51:25;;;;;;;0.50;0.30;;;;;;;20.82;58.29;101394.97;5037855;28;20021;-63
2021/08/10 09:53:57;;;;;;;0.57;0.20;;;;;;;20.85;59.29;101399.25;5051314;28;20041;-64
2021/08/10 09:56:44;;;;;;;0.98;0.25;;;;;;;20.85;60.15;101404.72;5055371;28;20095;-65
2021/08/10 09:59:10;;;;;;;0.93;0.20;;;;;;;20.83;60.20;101402.16;5056160;28;20021;-65
2021/08/10 10:01:40;;;;;;;0.68;0.28;;;;;;;20.91;61.09;101393.94;5051831;28;20048;-65
2021/08/10 10:04:16;;;;;;;1.65;0.20;;;;;;;20.81;60.25;101387.78;5055845;28;20112;-65
2021/08/10 10:06:44;;;;;;;1.33;0.22;;;;;;;20.77;60.81;101385.59;5055898;28;20492;-62
2021/08/10 10:09:11;;;;;;;1.27;0.40;;;;;;;20.88;58.91;101388.81;5055771;28;20032;-63
2021/08/10 10:11:38;;;;;;;1.13;0.30;;;;;;;20.83;59.06;101395.84;5055462;28;20379;-63
2021/08/10 10:14:05;;;;;;;0.40;0.20;;;;;;;20.88;60.81;101396.16;5055860;28;20028;-64
2021/08/10 10:16:32;;;;;;;0.57;0.25;;;;;;;20.87;61.32;101391.72;5055874;28;20143;-63
2021/08/10 10:19:10;;;;;;;0.80;0.13;;;;;;;20.87;58.44;101392.56;5055745;28;20024;-64
2021/08/10 10:21:36;;;;;;;1.02;0.45;;;;;;;20.79;60.05;101389.00;5055712;28;20560;-63
2021/08/10 10:24:03;;;;;;;0.57;0.28;;;;;;;20.77;58.53;101385.59;5055754;28;20032;-63
2021/08/10 10:26:35;;;;;;;1.50;0.20;;;;;;;20.78;59.30;101384.56;5055256;28;20021;-64
2021/08/10 10:29:01;;;;;;;0.77;0.30;;;;;;;20.82;60.52;101389.50;5054933;28;20037;-63
2021/08/10 10:31:27;;;;;;;0.20;0.20;;;;;;;20.81;61.07;101390.53;5055464;28;20036;-64
2021/08/10 10:33:53;;;;;;;1.77;0.40;;;;;;;20.83;61.07;101395.84;5055495;28;20527;-63
2021/08/10 10:36:18;;;;;;;0.20;0.15;;;;;;;20.82;60.44;101394.97;5055267;28;20021;-63
2021/08/10 10:38:45;;;;;;;1.17;0.30;;;;;;;20.87;61.04;101391.72;5055307;28;20455;-63
2021/08/10 10:41:13;;;;;;;2.30;0.50;;;;;;;20.85;61.06;101400.09;5055219;28;20403;-63
2021/08/10 10:43:39;;;;;;;1.20;0.52;;;;;;;20.73;60.09;101407.81;5053620;28;20104;-63
2021/08/10 10:46:25;;;;;;;1.20;0.25;;;;;;;20.85;58.80;101411.03;5053017;28;20111;-64
2021/08/10 10:48:50;;;;;;;1.20;0.20;;;;;;;20.85;59.08;101421.13;5054958;28;20108;-64
2021/08/10 10:51:22;;;;;;;1.08;0.40;;;;;;;20.81;59.86;101426.03;5054892;28;20108;-65
2021/08/10 10:53:48;;;;;;;2.28;0.50;;;;;;;20.73;62.28;101428.81;5053843;28;20017;-64
2021/08/10 10:56:25;;;;;;;0.10;0.10;;;;;;;20.83;59.65;101425.91;5054476;28;20021;-65
2021/08/10 10:58:52;;;;;;;0.35;0.10;;;;;;;20.83;60.37;101423.16;5054389;28;20027;-65
2021/08/10 11:01:21;;;;;;;2.30;0.38;;;;;;;20.78;61.28;101425.53;5053493;28;20080;-64
2021/08/10 11:04:07;;;;;;;1.45;0.25;;;;;;;20.88;60.84;101427.06;5054256;28;20025;-64
2021/08/10 11:06:36;;;;;;;1.25;0.50;;;;;;;20.82;60.48;101437.81;5052012;28;20066;-64
2021/08/10 11:09:03;;;;;;;1.17;0.28;;;;;;;20.87;59.22;101429.97;5054679;28;20032;-64
2021/08/10 11:11:48;;;;;;;0.50;0.20;;;;;;;20.77;60.87;101429.31;5054643;28;20372;-64
2021/08/10 11:14:35;;;;;;;2.47;0.28;;;;;;;20.80;60.74;101420.75;5053183;28;20024;-64
2021/08/10 11:17:14;;;;;;;1.95;0.40;;;;;;;20.79;61.66;101421.78;5039398;28;20101;-64
2021/08/10 11:19:43;;;;;;;0.68;0.28;;;;;;;20.84;60.27;101424.88;5053632;28;20514;-63
2021/08/10 11:22:14;;;;;;;0.60;0.10;;;;;;;20.86;60.65;101420.09;5042842;28;20035;-63
2021/08/10 11:24:47;;;;;;;1.33;0.20;;;;;;;20.75;61.74;101421.28;5051812;28;20049;-63
2021/08/10 11:27:41;;;;;;;1.17;0.30;;;;;;;20.76;60.79;101424.88;5051922;28;20045;-63